Time;durP1;ratioP1;P1;durP2;ratioP2;P2;SDS_P1;SDS_P2;PMS_P1;PMS_P2;Temp;Humidity;BMP_temperature;BMP_pressure;BME280_temperature;BME280_humidity;BME280_pressure;Samples;Min_cycle;Max_cycle;Signal;HPM_P1;HPM_P2
2024/03/31 00:04:35;;;;;;;22.55;3.75;;;;;;;;;;10474020;28;20090;-46
2024/03/31 00:09:36;;;;;;;16.60;3.85;;;;;;;;;;10472136;28;20483;-47
2024/03/31 00:14:36;;;;;;;18.73;3.85;;;;;;;;;;10477521;28;20035;-50
2024/03/31 00:19:37;;;;;;;22.42;4.20;;;;;;;;;;10495527;28;20035;-50
2024/03/31 00:24:38;;;;;;;17.95;3.92;;;;;;;;;;10500252;28;20052;-51
2024/03/31 00:29:39;;;;;;;20.63;4.00;;;;;;;;;;10493631;28;20467;-47
2024/03/31 00:34:39;;;;;;;19.75;4.43;;;;;;;;;;10500690;28;20380;-50
2024/03/31 00:39:41;;;;;;;21.35;3.95;;;;;;;;;;10489607;28;20050;-49
2024/03/31 00:44:41;;;;;;;24.92;4.60;;;;;;;;;;10481379;28;20036;-49
2024/03/31 00:49:42;;;;;;;17.40;4.43;;;;;;;;;;10476557;28;20029;-52
2024/03/31 00:54:42;;;;;;;15.88;3.42;;;;;;;;;;10492507;28;20045;-49
2024/03/31 00:59:43;;;;;;;11.63;2.92;;;;;;;;;;10492207;28;20029;-50
2024/03/31 01:04:44;;;;;;;23.35;4.00;;;;;;;;;;10479429;28;20522;-49
2024/03/31 01:09:45;;;;;;;16.42;3.40;;;;;;;;;;10491203;28;20255;-51
2024/03/31 01:14:46;;;;;;;16.88;3.63;;;;;;;;;;10493220;28;20020;-47
2024/03/31 01:19:46;;;;;;;12.40;3.60;;;;;;;;;;10503439;28;20020;-50
2024/03/31 01:24:47;;;;;;;17.65;3.92;;;;;;;;;;10493494;28;20060;-49
2024/03/31 01:29:47;;;;;;;16.20;4.07;;;;;;;;;;10500383;28;20082;-51
2024/03/31 01:34:48;;;;;;;12.27;3.47;;;;;;;;;;10489025;28;20039;-51
2024/03/31 01:39:49;;;;;;;12.55;3.63;;;;;;;;;;10492324;28;20020;-59
2024/03/31 01:44:49;;;;;;;19.70;3.85;;;;;;;;;;10490478;28;20036;-57
2024/03/31 01:49:50;;;;;;;19.65;3.45;;;;;;;;;;10501802;28;20029;-60
2024/03/31 01:54:51;;;;;;;12.77;3.70;;;;;;;;;;10501290;28;20028;-59
2024/03/31 01:59:51;;;;;;;15.15;3.67;;;;;;;;;;10501803;28;20023;-57
2024/03/31 02:04:52;;;;;;;11.70;2.78;;;;;;;;;;10490542;28;20025;-58
2024/03/31 02:09:52;;;;;;;14.30;3.42;;;;;;;;;;10511297;28;20243;-59
2024/03/31 02:14:53;;;;;;;9.20;3.47;;;;;;;;;;10476674;28;20021;-59
2024/03/31 02:19:53;;;;;;;12.07;3.20;;;;;;;;;;10494995;28;20028;-60
2024/03/31 02:24:54;;;;;;;8.75;2.88;;;;;;;;;;10496903;28;20047;-58
2024/03/31 02:29:54;;;;;;;12.88;3.15;;;;;;;;;;10502771;28;20023;-60
2024/03/31 02:34:55;;;;;;;12.65;3.25;;;;;;;;;;10511570;28;20024;-58
2024/03/31 02:39:56;;;;;;;9.30;3.38;;;;;;;;;;10492672;28;20037;-60
2024/03/31 02:44:56;;;;;;;16.08;3.95;;;;;;;;;;10488368;28;20041;-58
2024/03/31 02:49:57;;;;;;;9.77;3.03;;;;;;;;;;10497793;28;20614;-58
2024/03/31 02:54:58;;;;;;;14.00;3.40;;;;;;;;;;10489579;28;20687;-59
2024/03/31 02:59:58;;;;;;;7.15;2.40;;;;;;;;;;10488651;28;20052;-59
2024/03/31 03:04:59;;;;;;;8.55;2.78;;;;;;;;;;10493685;28;20039;-59
2024/03/31 03:10:00;;;;;;;9.45;2.67;;;;;;;;;;10494396;28;20035;-56
2024/03/31 03:15:00;;;;;;;9.43;3.17;;;;;;;;;;10485275;28;20051;-58
2024/03/31 03:20:01;;;;;;;14.80;3.53;;;;;;;;;;10489693;28;20419;-58
2024/03/31 03:25:02;;;;;;;9.63;3.03;;;;;;;;;;10481914;28;20599;-59
2024/03/31 03:30:03;;;;;;;8.90;2.97;;;;;;;;;;10494249;28;20477;-49
2024/03/31 03:35:04;;;;;;;12.45;3.25;;;;;;;;;;10472513;28;20016;-52
2024/03/31 03:40:06;;;;;;;9.80;2.90;;;;;;;;;;10486002;28;20027;-57
2024/03/31 03:45:09;;;;;;;10.70;2.72;;;;;;;;;;10487052;28;20048;-58
2024/03/31 03:50:10;;;;;;;14.55;3.83;;;;;;;;;;10499564;28;20431;-59
2024/03/31 03:55:11;;;;;;;9.85;3.47;;;;;;;;;;10485686;28;20025;-58
2024/03/31 04:00:12;;;;;;;8.02;2.70;;;;;;;;;;10486144;28;20099;-59
2024/03/31 04:05:12;;;;;;;11.20;2.53;;;;;;;;;;10499757;28;20043;-58
2024/03/31 04:10:13;;;;;;;12.75;3.08;;;;;;;;;;10449885;28;20447;-58
2024/03/31 04:15:14;;;;;;;7.53;1.88;;;;;;;;;;10477620;28;20025;-59
2024/03/31 04:20:14;;;;;;;10.05;2.80;;;;;;;;;;10482346;28;20480;-59
2024/03/31 04:25:15;;;;;;;8.15;2.42;;;;;;;;;;10489444;28;20442;-59
2024/03/31 04:30:15;;;;;;;5.82;2.33;;;;;;;;;;10493964;28;20036;-58
2024/03/31 04:35:16;;;;;;;9.80;2.17;;;;;;;;;;10502444;28;20513;-59
2024/03/31 04:40:17;;;;;;;7.78;2.45;;;;;;;;;;10507018;28;20070;-59
2024/03/31 04:45:17;;;;;;;7.03;2.00;;;;;;;;;;10483906;28;20036;-58
2024/03/31 04:50:19;;;;;;;8.07;2.58;;;;;;;;;;10489142;28;20029;-58
2024/03/31 04:55:20;;;;;;;5.93;2.00;;;;;;;;;;10492754;28;20016;-57
2024/03/31 05:00:20;;;;;;;6.55;2.28;;;;;;;;;;10493348;28;20025;-58
2024/03/31 05:05:21;;;;;;;10.90;2.22;;;;;;;;;;10498432;28;20508;-58
2024/03/31 05:10:21;;;;;;;6.68;2.42;;;;;;;;;;10488105;28;20074;-59
2024/03/31 05:15:22;;;;;;;6.15;2.20;;;;;;;;;;10493081;28;20029;-58
2024/03/31 05:20:23;;;;;;;5.70;2.22;;;;;;;;;;10521807;28;20503;-58
2024/03/31 05:25:23;;;;;;;6.55;2.08;;;;;;;;;;10504805;28;20048;-54
2024/03/31 05:30:26;;;;;;;4.78;1.88;;;;;;;;;;10491812;28;20032;-58
2024/03/31 05:35:26;;;;;;;4.07;1.70;;;;;;;;;;10501006;28;20058;-56
2024/03/31 05:40:27;;;;;;;12.25;2.42;;;;;;;;;;10478676;28;20060;-55
2024/03/31 05:45:27;;;;;;;5.43;2.20;;;;;;;;;;10490268;28;20040;-59
2024/03/31 05:50:28;;;;;;;9.25;2.60;;;;;;;;;;10489874;28;20029;-58
2024/03/31 05:55:29;;;;;;;8.60;2.78;;;;;;;;;;10488703;28;20039;-56
2024/03/31 06:00:29;;;;;;;7.82;2.08;;;;;;;;;;10482166;28;20083;-58
2024/03/31 06:05:30;;;;;;;9.63;2.20;;;;;;;;;;10472938;28;20094;-57
2024/03/31 06:10:30;;;;;;;8.65;2.70;;;;;;;;;;10489490;28;20043;-58
2024/03/31 06:15:31;;;;;;;5.05;1.77;;;;;;;;;;10500043;28;20054;-57
2024/03/31 06:20:32;;;;;;;17.17;3.17;;;;;;;;;;10499870;28;20448;-58
2024/03/31 06:25:32;;;;;;;8.85;2.17;;;;;;;;;;10482029;28;20043;-59
2024/03/31 06:30:33;;;;;;;13.82;2.58;;;;;;;;;;10525613;28;20028;-58
2024/03/31 06:35:34;;;;;;;8.38;2.65;;;;;;;;;;10503917;28;20024;-59
2024/03/31 06:40:35;;;;;;;12.68;2.63;;;;;;;;;;10512150;28;20036;-59
2024/03/31 06:45:35;;;;;;;12.20;3.05;;;;;;;;;;10524457;28;20098;-59
2024/03/31 06:50:36;;;;;;;13.95;2.80;;;;;;;;;;10500658;28;20090;-53
2024/03/31 06:55:36;;;;;;;11.93;3.38;;;;;;;;;;10526943;28;20032;-59
2024/03/31 07:00:39;;;;;;;11.65;3.08;;;;;;;;;;10511403;28;20024;-49
2024/03/31 07:05:40;;;;;;;9.90;2.80;;;;;;;;;;10520954;28;20043;-51
2024/03/31 07:10:40;;;;;;;13.27;3.15;;;;;;;;;;10508815;28;20376;-52
2024/03/31 07:15:41;;;;;;;11.30;2.90;;;;;;;;;;10513584;28;20475;-51
2024/03/31 07:20:41;;;;;;;11.05;3.03;;;;;;;;;;10529431;22;20067;-61
2024/03/31 07:25:42;;;;;;;8.73;2.70;;;;;;;;;;10458412;28;20037;-62
2024/03/31 07:30:42;;;;;;;11.30;3.00;;;;;;;;;;10472804;28;20026;-61
2024/03/31 07:35:43;;;;;;;8.68;3.03;;;;;;;;;;10453273;28;20038;-62
2024/03/31 07:40:46;;;;;;;9.00;2.72;;;;;;;;;;10446619;28;20493;-60
2024/03/31 07:45:46;;;;;;;15.77;3.35;;;;;;;;;;10445107;28;20090;-59
2024/03/31 07:50:47;;;;;;;16.17;2.55;;;;;;;;;;10446052;28;20029;-60
2024/03/31 07:55:59;;;;;;;12.10;3.08;;;;;;;;;;10459456;28;20399;-61
2024/03/31 08:01:00;;;;;;;9.30;2.75;;;;;;;;;;10445389;28;20035;-61
2024/03/31 08:06:01;;;;;;;11.52;3.50;;;;;;;;;;10448445;28;20377;-61
2024/03/31 08:11:02;;;;;;;12.98;3.20;;;;;;;;;;10449059;28;20046;-61
2024/03/31 08:16:03;;;;;;;12.15;3.15;;;;;;;;;;10449183;28;20108;-61
2024/03/31 08:21:03;;;;;;;11.60;2.50;;;;;;;;;;10447166;28;20048;-61
2024/03/31 08:26:04;;;;;;;10.23;3.30;;;;;;;;;;10450388;28;20473;-60
2024/03/31 08:31:05;;;;;;;16.08;2.75;;;;;;;;;;10443229;28;20029;-61
2024/03/31 08:36:06;;;;;;;11.93;3.42;;;;;;;;;;10458576;28;20063;-60
2024/03/31 08:41:09;;;;;;;11.32;3.25;;;;;;;;;;10451419;28;20025;-60
2024/03/31 08:46:09;;;;;;;10.10;2.72;;;;;;;;;;10443339;28;20033;-60
2024/03/31 08:51:10;;;;;;;12.45;2.30;;;;;;;;;;10444675;28;20029;-60
2024/03/31 08:56:11;;;;;;;15.05;3.42;;;;;;;;;;10446228;28;20051;-57
2024/03/31 09:01:13;;;;;;;12.35;3.22;;;;;;;;;;10442975;28;20029;-60
2024/03/31 09:06:14;;;;;;;14.48;3.25;;;;;;;;;;10445182;28;20036;-60
2024/03/31 09:11:15;;;;;;;16.65;3.30;;;;;;;;;;10429402;28;20453;-61
2024/03/31 09:16:15;;;;;;;10.32;3.33;;;;;;;;;;10450031;28;20033;-61
2024/03/31 09:21:16;;;;;;;14.32;3.13;;;;;;;;;;10451871;28;20504;-61
2024/03/31 09:26:17;;;;;;;13.85;3.05;;;;;;;;;;10455082;28;20116;-61
2024/03/31 09:31:20;;;;;;;10.27;2.70;;;;;;;;;;10475787;28;20033;-61
2024/03/31 09:36:21;;;;;;;12.35;3.45;;;;;;;;;;10444656;28;20369;-61
2024/03/31 09:41:22;;;;;;;17.23;3.20;;;;;;;;;;10451414;28;20040;-62
2024/03/31 09:46:23;;;;;;;15.70;3.25;;;;;;;;;;10432284;28;20096;-61
2024/03/31 09:51:32;;;;;;;13.45;3.80;;;;;;;;;;10455462;28;20033;-61
2024/03/31 09:56:55;;;;;;;9.70;2.88;;;;;;;;;;10451417;28;20036;-60
2024/03/31 10:01:56;;;;;;;12.13;2.90;;;;;;;;;;10431598;28;20024;-61
2024/03/31 10:06:58;;;;;;;16.83;3.25;;;;;;;;;;10433587;28;20041;-60
2024/03/31 10:12:00;;;;;;;16.00;3.22;;;;;;;;;;10450885;28;20064;-60
2024/03/31 10:17:01;;;;;;;10.50;3.17;;;;;;;;;;10450025;28;20037;-61
2024/03/31 10:22:04;;;;;;;11.88;3.40;;;;;;;;;;10429525;28;20514;-61
2024/03/31 10:27:07;;;;;;;12.55;3.47;;;;;;;;;;10431536;28;20055;-60
2024/03/31 10:32:07;;;;;;;10.90;3.85;;;;;;;;;;10454344;28;20114;-60
2024/03/31 10:37:10;;;;;;;12.45;3.30;;;;;;;;;;10426670;28;20102;-59
2024/03/31 10:42:11;;;;;;;11.68;3.33;;;;;;;;;;10426283;28;20040;-61
2024/03/31 10:47:11;;;;;;;12.98;2.88;;;;;;;;;;10437284;28;20116;-60
2024/03/31 10:52:14;;;;;;;23.77;4.28;;;;;;;;;;10463969;28;20029;-60
2024/03/31 10:57:19;;;;;;;25.95;4.22;;;;;;;;;;10472443;28;20032;-59
2024/03/31 11:02:23;;;;;;;15.32;4.30;;;;;;;;;;10428634;28;20032;-61
2024/03/31 11:07:23;;;;;;;17.17;4.95;;;;;;;;;;10447686;28;20032;-60
2024/03/31 11:12:25;;;;;;;22.02;4.63;;;;;;;;;;10442422;28;20036;-61
2024/03/31 11:17:26;;;;;;;17.77;4.28;;;;;;;;;;10441153;28;20025;-61
2024/03/31 11:22:27;;;;;;;16.20;4.47;;;;;;;;;;10459831;28;20389;-60
2024/03/31 11:27:28;;;;;;;20.42;4.43;;;;;;;;;;10468912;28;20036;-60
2024/03/31 11:32:30;;;;;;;16.45;4.75;;;;;;;;;;10425408;28;20029;-61
2024/03/31 11:37:30;;;;;;;14.45;4.60;;;;;;;;;;10447783;28;20036;-59
2024/03/31 11:42:31;;;;;;;17.35;4.00;;;;;;;;;;10448867;28;20033;-61
2024/03/31 11:47:32;;;;;;;10.10;3.90;;;;;;;;;;10470703;28;20033;-61
2024/03/31 11:52:32;;;;;;;20.83;4.50;;;;;;;;;;10461994;28;20384;-61
2024/03/31 11:57:33;;;;;;;20.83;5.10;;;;;;;;;;10455579;28;20036;-61
2024/03/31 12:02:33;;;;;;;22.00;5.05;;;;;;;;;;10461075;28;20022;-61
2024/03/31 12:07:35;;;;;;;15.20;4.40;;;;;;;;;;10453425;28;20033;-61
2024/03/31 12:12:36;;;;;;;26.77;5.70;;;;;;;;;;10447109;28;20032;-56
2024/03/31 12:17:36;;;;;;;17.40;4.28;;;;;;;;;;10450709;28;20034;-61
2024/03/31 12:22:40;;;;;;;12.18;4.38;;;;;;;;;;10455308;28;20060;-55
2024/03/31 12:27:41;;;;;;;19.33;4.70;;;;;;;;;;10445142;28;20115;-61
2024/03/31 12:32:42;;;;;;;12.48;3.75;;;;;;;;;;10427642;28;20040;-59
2024/03/31 12:37:42;;;;;;;23.67;4.22;;;;;;;;;;10444772;28;20571;-58
2024/03/31 12:42:43;;;;;;;17.60;4.10;;;;;;;;;;10418788;28;20033;-59
2024/03/31 12:47:43;;;;;;;24.80;4.10;;;;;;;;;;10452227;28;20123;-60
2024/03/31 12:52:44;;;;;;;18.83;4.22;;;;;;;;;;10431125;28;20025;-60
2024/03/31 12:57:45;;;;;;;12.73;4.72;;;;;;;;;;10445614;28;20496;-60
2024/03/31 13:02:46;;;;;;;18.98;4.50;;;;;;;;;;10477223;28;20029;-60
2024/03/31 13:07:46;;;;;;;11.75;3.38;;;;;;;;;;10438530;28;20104;-59
2024/03/31 13:12:47;;;;;;;11.35;3.80;;;;;;;;;;10449759;28;20029;-60
2024/03/31 13:17:48;;;;;;;16.70;4.00;;;;;;;;;;10451953;28;20032;-59
2024/03/31 13:22:49;;;;;;;16.90;4.78;;;;;;;;;;10437140;28;20041;-60
2024/03/31 13:27:50;;;;;;;17.98;4.22;;;;;;;;;;10430887;28;20449;-59
2024/03/31 13:32:51;;;;;;;17.00;4.13;;;;;;;;;;10442351;28;20032;-60
2024/03/31 13:37:52;;;;;;;16.92;4.38;;;;;;;;;;10463544;28;20067;-56
2024/03/31 13:42:52;;;;;;;11.68;3.58;;;;;;;;;;10454738;28;20032;-60
2024/03/31 13:47:53;;;;;;;16.65;5.25;;;;;;;;;;10469013;28;20025;-60
2024/03/31 13:52:54;;;;;;;9.85;3.35;;;;;;;;;;10456015;28;20371;-60
2024/03/31 13:57:54;;;;;;;15.35;4.18;;;;;;;;;;10467340;28;20494;-58
2024/03/31 14:02:56;;;;;;;16.40;4.32;;;;;;;;;;10473992;28;20483;-61
2024/03/31 14:07:57;;;;;;;12.63;4.03;;;;;;;;;;10470065;28;20499;-60
2024/03/31 14:12:59;;;;;;;12.35;3.30;;;;;;;;;;10434100;28;20442;-60
2024/03/31 14:18:02;;;;;;;17.23;4.45;;;;;;;;;;10452019;28;20457;-60
2024/03/31 14:23:02;;;;;;;10.73;3.55;;;;;;;;;;10439347;28;20330;-59
2024/03/31 14:28:04;;;;;;;9.15;3.10;;;;;;;;;;10451827;28;20315;-60
2024/03/31 14:33:04;;;;;;;11.02;3.33;;;;;;;;;;10445943;28;20434;-60
2024/03/31 14:38:06;;;;;;;14.57;3.78;;;;;;;;;;10438715;28;20083;-60
2024/03/31 14:43:07;;;;;;;10.25;3.67;;;;;;;;;;10440472;28;20048;-61
2024/03/31 14:48:07;;;;;;;7.68;3.03;;;;;;;;;;10421412;28;20472;-60
2024/03/31 14:53:08;;;;;;;11.75;3.80;;;;;;;;;;10442477;28;20094;-61
2024/03/31 14:58:10;;;;;;;11.93;3.13;;;;;;;;;;10441685;28;20021;-61
2024/03/31 15:03:11;;;;;;;11.73;2.97;;;;;;;;;;10436865;28;20400;-57
2024/03/31 15:08:11;;;;;;;11.52;3.28;;;;;;;;;;10436480;28;20211;-53
2024/03/31 15:13:12;;;;;;;16.67;3.72;;;;;;;;;;10443543;28;20029;-57
2024/03/31 15:18:13;;;;;;;13.43;3.90;;;;;;;;;;10435810;28;20026;-57
2024/03/31 15:23:14;;;;;;;9.25;3.10;;;;;;;;;;10441823;28;20041;-55
2024/03/31 15:28:14;;;;;;;8.38;3.38;;;;;;;;;;10444093;28;20035;-56
2024/03/31 15:33:15;;;;;;;8.63;3.10;;;;;;;;;;10441440;28;20496;-58
2024/03/31 15:38:15;;;;;;;9.90;3.28;;;;;;;;;;10441334;28;20608;-56
2024/03/31 15:43:16;;;;;;;15.88;3.42;;;;;;;;;;10445198;28;20037;-59
2024/03/31 15:48:17;;;;;;;13.93;3.60;;;;;;;;;;10448666;28;20029;-54
2024/03/31 15:53:17;;;;;;;11.10;2.95;;;;;;;;;;10447823;28;20028;-57
2024/03/31 15:58:19;;;;;;;14.23;3.15;;;;;;;;;;10451009;28;20300;-57
2024/03/31 16:03:19;;;;;;;13.98;3.05;;;;;;;;;;10447274;28;20021;-59
2024/03/31 16:08:21;;;;;;;10.40;3.10;;;;;;;;;;10451591;28;20033;-56
2024/03/31 16:13:23;;;;;;;11.80;3.17;;;;;;;;;;10442157;28;20271;-58
2024/03/31 16:18:23;;;;;;;12.52;3.97;;;;;;;;;;10443067;28;20435;-55
2024/03/31 16:23:24;;;;;;;7.43;3.08;;;;;;;;;;10471392;28;20048;-58
2024/03/31 16:28:24;;;;;;;6.60;2.60;;;;;;;;;;10463922;28;20017;-59
2024/03/31 16:33:25;;;;;;;13.45;2.92;;;;;;;;;;10450605;28;20030;-59
2024/03/31 16:38:25;;;;;;;8.70;3.35;;;;;;;;;;10464918;28;20032;-55
2024/03/31 16:43:26;;;;;;;8.50;3.13;;;;;;;;;;10461901;28;20052;-59
2024/03/31 16:48:27;;;;;;;15.27;3.50;;;;;;;;;;10446099;28;20044;-58
2024/03/31 16:53:27;;;;;;;8.25;2.72;;;;;;;;;;10457154;28;20032;-59
2024/03/31 16:58:28;;;;;;;15.93;3.13;;;;;;;;;;10467295;28;20020;-59
2024/03/31 17:03:28;;;;;;;9.70;2.60;;;;;;;;;;10451547;28;20021;-59
2024/03/31 17:08:29;;;;;;;9.68;2.70;;;;;;;;;;10447575;28;20025;-60
2024/03/31 17:13:29;;;;;;;11.60;3.22;;;;;;;;;;10470400;28;20033;-59
2024/03/31 17:18:30;;;;;;;14.07;3.08;;;;;;;;;;10453908;28;20029;-59
2024/03/31 17:23:31;;;;;;;8.32;3.10;;;;;;;;;;10465917;28;20052;-58
2024/03/31 17:28:31;;;;;;;12.13;3.42;;;;;;;;;;10463796;28;20630;-58
2024/03/31 17:33:32;;;;;;;7.97;2.67;;;;;;;;;;10460680;28;20041;-60
2024/03/31 17:38:33;;;;;;;7.55;2.63;;;;;;;;;;10441846;28;20087;-59
2024/03/31 17:43:33;;;;;;;13.93;3.47;;;;;;;;;;10440018;28;20032;-58
2024/03/31 17:48:36;;;;;;;8.18;3.33;;;;;;;;;;10447107;28;20025;-55
2024/03/31 17:53:37;;;;;;;15.10;2.95;;;;;;;;;;10448727;28;20443;-56
2024/03/31 17:58:39;;;;;;;17.45;4.43;;;;;;;;;;10429912;28;20052;-56
2024/03/31 18:03:41;;;;;;;16.67;3.13;;;;;;;;;;10438552;28;20033;-58
2024/03/31 18:08:42;;;;;;;9.20;2.90;;;;;;;;;;10444490;28;20025;-58
2024/03/31 18:13:42;;;;;;;15.30;3.40;;;;;;;;;;10446595;28;20033;-59
2024/03/31 18:18:43;;;;;;;11.63;3.53;;;;;;;;;;10448717;28;20044;-59
2024/03/31 18:23:49;;;;;;;12.57;3.85;;;;;;;;;;10455528;28;20064;-58
2024/03/31 18:28:50;;;;;;;12.07;3.30;;;;;;;;;;10447804;28;20467;-58
2024/03/31 18:33:50;;;;;;;15.13;3.95;;;;;;;;;;10451104;28;20025;-59
2024/03/31 18:38:51;;;;;;;12.45;3.17;;;;;;;;;;10460180;28;20423;-59
2024/03/31 18:43:53;;;;;;;13.60;3.67;;;;;;;;;;10451446;28;20128;-58
2024/03/31 18:48:53;;;;;;;18.23;3.70;;;;;;;;;;10457264;28;20464;-58
2024/03/31 18:53:54;;;;;;;14.10;3.58;;;;;;;;;;10450700;28;20086;-56
2024/03/31 18:58:55;;;;;;;13.70;3.40;;;;;;;;;;10471095;28;20043;-59
2024/03/31 19:03:57;;;;;;;12.05;3.65;;;;;;;;;;10449542;28;20049;-55
2024/03/31 19:08:57;;;;;;;12.00;3.42;;;;;;;;;;10442441;28;20036;-57
2024/03/31 19:14:00;;;;;;;9.25;3.28;;;;;;;;;;10445355;28;20036;-59
2024/03/31 19:19:01;;;;;;;14.95;3.63;;;;;;;;;;10449936;28;20029;-59
2024/03/31 19:24:01;;;;;;;8.60;3.10;;;;;;;;;;10432941;28;20052;-49
2024/03/31 19:29:02;;;;;;;15.07;3.17;;;;;;;;;;10452684;28;20021;-46
2024/03/31 19:34:02;;;;;;;11.35;2.92;;;;;;;;;;10444521;28;20036;-48
2024/03/31 19:39:04;;;;;;;9.73;3.35;;;;;;;;;;10455506;28;20024;-47
2024/03/31 19:44:04;;;;;;;17.20;3.50;;;;;;;;;;10438181;28;20427;-47
2024/03/31 19:49:05;;;;;;;7.63;2.70;;;;;;;;;;10442409;28;20036;-48
2024/03/31 19:54:05;;;;;;;9.95;3.80;;;;;;;;;;10443848;28;20052;-46
2024/03/31 19:59:06;;;;;;;14.25;4.15;;;;;;;;;;10451024;28;20025;-47
2024/03/31 20:04:08;;;;;;;16.92;4.10;;;;;;;;;;10455387;28;20029;-47
2024/03/31 20:09:08;;;;;;;13.40;3.55;;;;;;;;;;10462266;28;20059;-47
2024/03/31 20:14:09;;;;;;;12.73;3.42;;;;;;;;;;10450092;28;20032;-46
2024/03/31 20:19:10;;;;;;;9.90;3.92;;;;;;;;;;10435579;28;20492;-47
2024/03/31 20:24:11;;;;;;;17.38;3.97;;;;;;;;;;10411365;28;20042;-47
2024/03/31 20:29:12;;;;;;;15.48;3.47;;;;;;;;;;10393785;28;20034;-47
2024/03/31 20:34:13;;;;;;;14.48;4.03;;;;;;;;;;10405580;28;20021;-47
2024/03/31 20:39:13;;;;;;;12.48;3.70;;;;;;;;;;10398518;28;20041;-47
2024/03/31 20:44:14;;;;;;;12.20;3.35;;;;;;;;;;10393916;28;20123;-47
2024/03/31 20:49:15;;;;;;;13.55;3.78;;;;;;;;;;10415687;28;20037;-48
2024/03/31 20:54:17;;;;;;;12.50;4.07;;;;;;;;;;10410294;28;20029;-47
2024/03/31 20:59:17;;;;;;;16.35;4.15;;;;;;;;;;10393868;28;20044;-46
2024/03/31 21:04:18;;;;;;;15.30;4.00;;;;;;;;;;10415063;28;20041;-47
2024/03/31 21:09:18;;;;;;;12.20;3.42;;;;;;;;;;10408475;28;20029;-47
2024/03/31 21:14:19;;;;;;;10.85;3.72;;;;;;;;;;10415524;28;20071;-49
2024/03/31 21:19:19;;;;;;;14.45;4.38;;;;;;;;;;10418020;28;20033;-52
2024/03/31 21:24:20;;;;;;;14.15;3.83;;;;;;;;;;10429495;28;20041;-49
2024/03/31 21:29:21;;;;;;;12.90;3.65;;;;;;;;;;10466790;28;20040;-50
2024/03/31 21:34:22;;;;;;;14.88;3.63;;;;;;;;;;10458721;28;20552;-48
2024/03/31 21:39:22;;;;;;;13.43;3.67;;;;;;;;;;10470381;28;20037;-55
2024/03/31 21:44:23;;;;;;;10.20;3.10;;;;;;;;;;10473751;28;20032;-46
2024/03/31 21:49:23;;;;;;;15.77;3.78;;;;;;;;;;10456690;28;20096;-48
2024/03/31 21:54:24;;;;;;;12.95;3.22;;;;;;;;;;10457947;28;20379;-47
2024/03/31 21:59:25;;;;;;;12.55;3.75;;;;;;;;;;10446802;28;20464;-48
2024/03/31 22:04:25;;;;;;;9.82;3.80;;;;;;;;;;10450552;28;20044;-47
2024/03/31 22:09:26;;;;;;;17.67;4.28;;;;;;;;;;10451111;28;20037;-50
2024/03/31 22:14:27;;;;;;;14.65;4.22;;;;;;;;;;10456344;28;20033;-48
2024/03/31 22:19:27;;;;;;;10.30;3.40;;;;;;;;;;10445958;28;20040;-51
2024/03/31 22:24:28;;;;;;;10.80;3.30;;;;;;;;;;10433756;28;20049;-48
2024/03/31 22:29:29;;;;;;;18.05;4.15;;;;;;;;;;10432503;28;20449;-49
2024/03/31 22:34:29;;;;;;;10.57;3.60;;;;;;;;;;10448230;28;20025;-47
2024/03/31 22:39:30;;;;;;;13.50;3.47;;;;;;;;;;10445851;28;20021;-48
2024/03/31 22:44:30;;;;;;;13.13;3.75;;;;;;;;;;10443685;28;20051;-49
2024/03/31 22:49:31;;;;;;;8.50;2.75;;;;;;;;;;10458579;28;20071;-50
2024/03/31 22:54:31;;;;;;;11.60;3.17;;;;;;;;;;10459534;28;20025;-46
2024/03/31 22:59:32;;;;;;;10.43;2.97;;;;;;;;;;10433466;28;20027;-50
2024/03/31 23:04:33;;;;;;;12.15;3.42;;;;;;;;;;10460943;28;20037;-48
2024/03/31 23:09:33;;;;;;;11.00;3.17;;;;;;;;;;10457536;28;20021;-55
2024/03/31 23:14:34;;;;;;;8.43;3.13;;;;;;;;;;10448115;28;20488;-55
2024/03/31 23:19:35;;;;;;;8.32;2.80;;;;;;;;;;10427960;28;20123;-57
2024/03/31 23:24:35;;;;;;;17.95;3.53;;;;;;;;;;10466514;28;20044;-50
2024/03/31 23:29:36;;;;;;;13.65;4.22;;;;;;;;;;10461961;28;20017;-49
2024/03/31 23:34:37;;;;;;;11.43;2.92;;;;;;;;;;10445399;28;20032;-53
2024/03/31 23:39:37;;;;;;;6.93;2.88;;;;;;;;;;10448055;28;20542;-54
2024/03/31 23:44:38;;;;;;;14.25;3.03;;;;;;;;;;10435111;28;20493;-49
2024/03/31 23:49:38;;;;;;;14.82;3.70;;;;;;;;;;10437404;28;20400;-50
2024/03/31 23:54:39;;;;;;;10.02;3.28;;;;;;;;;;10430481;28;20427;-47
2024/03/31 23:59:40;;;;;;;16.65;2.67;;;;;;;;;;10470163;28;20129;-56
